Terminal Aerodrome Forecast
Issued by NWS Wilmington, OH

Current Version | Previous Version | Text Only | Print | Product List | Glossary Off
Versions: 1 2 3 4 5 6 7 8 9 10 11 12 13 14 15 16 17 18 19 20 21 22

000
FTUS41 KILN 180200 AAA
TAFDAY
TAF AMD
KDAY 180222Z 1802/1824 28014G26KT P6SM OVC050
     FM180400 28012G18KT P6SM OVC035
      TEMPO 1804/1808 BKN025
     FM180800 29012KT P6SM OVC015
     FM181300 30012G22KT P6SM OVC018
     FM181800 31012G24KT P6SM VCSH OVC025
     FM182300 32010G18KT P6SM BKN025=

USA.gov is the U.S. government's official web portal to all federal, state and local government web resources and services.